createdAt,value
2022-08-03T00:00:00.214Z,2.53
2022-08-03T00:02:32.915Z,3.08
2022-08-03T00:05:04.888Z,2.60
2022-08-03T00:07:44.460Z,2.63
2022-08-03T00:19:26.904Z,2.30
2022-08-03T00:22:18.831Z,2.40
2022-08-03T00:25:04.281Z,2.53
2022-08-03T00:27:55.988Z,2.53
2022-08-03T00:30:36.399Z,2.83
2022-08-03T00:33:59.073Z,2.58
2022-08-03T00:36:33.248Z,2.60
2022-08-03T00:39:09.945Z,2.50
2022-08-03T00:41:55.885Z,2.63
2022-08-03T00:44:28.216Z,2.60
2022-08-03T00:47:00.382Z,2.83
2022-08-03T00:49:39.224Z,2.80
2022-08-03T00:52:40.992Z,3.67
2022-08-03T00:55:36.328Z,3.40
2022-08-03T00:58:53.361Z,3.20
2022-08-03T01:01:28.326Z,2.47
2022-08-03T01:04:04.644Z,2.97
2022-08-03T01:06:48.432Z,3.10
2022-08-03T01:09:40.898Z,3.00
2022-08-03T01:12:27.139Z,2.90
2022-08-03T01:15:01.268Z,2.63
2022-08-03T01:17:56.245Z,2.80
2022-08-03T01:25:08.859Z,2.67
2022-08-03T01:28:19.036Z,3.00
2022-08-03T01:30:56.728Z,2.80
2022-08-03T01:33:47.434Z,2.70
2022-08-03T01:36:29.341Z,2.72
2022-08-03T01:39:04.683Z,2.88
2022-08-03T01:41:40.786Z,2.83
2022-08-03T01:44:30.310Z,2.70
2022-08-03T01:47:06.045Z,2.90
2022-08-03T01:49:52.901Z,2.70
2022-08-03T01:52:33.819Z,2.90
2022-08-03T01:55:20.253Z,2.80
2022-08-03T01:58:06.817Z,2.90
2022-08-03T02:02:28.416Z,3.00
2022-08-03T02:04:59.477Z,2.70
2022-08-03T02:07:52.871Z,2.95
2022-08-03T02:10:40.682Z,2.63
2022-08-03T02:13:32.842Z,2.70
2022-08-03T02:19:06.622Z,2.88
2022-08-03T02:22:01.237Z,2.80
2022-08-03T02:25:32.617Z,2.97
2022-08-03T02:28:24.958Z,2.90
2022-08-03T02:31:07.010Z,2.70
2022-08-03T02:33:58.459Z,2.85
2022-08-03T02:36:34.832Z,3.15
2022-08-03T02:39:57.262Z,2.53
2022-08-03T02:46:39.959Z,2.70
2022-08-03T02:49:41.038Z,2.83
2022-08-03T02:52:31.284Z,2.53
2022-08-03T03:00:00.844Z,2.60
2022-08-03T03:02:48.750Z,2.80
2022-08-03T03:15:32.364Z,2.90
2022-08-03T03:18:22.536Z,2.85
2022-08-03T03:20:59.350Z,3.00
2022-08-03T03:23:32.529Z,2.72
2022-08-03T03:26:07.809Z,2.88
2022-08-03T03:28:46.000Z,2.60
2022-08-03T03:31:19.553Z,2.67
2022-08-03T03:33:53.325Z,2.50
2022-08-03T03:36:25.011Z,3.10
2022-08-03T03:43:33.209Z,2.50
2022-08-03T03:46:17.167Z,2.60
2022-08-03T03:53:46.846Z,2.63
2022-08-03T04:00:34.700Z,3.10
2022-08-03T04:03:05.220Z,2.88
2022-08-03T04:05:55.744Z,2.60
2022-08-03T04:08:49.585Z,2.75
2022-08-03T04:11:27.458Z,2.85
2022-08-03T04:14:39.857Z,2.72
2022-08-03T04:17:19.929Z,2.78
2022-08-03T04:19:55.436Z,2.88
2022-08-03T04:22:27.540Z,2.92
2022-08-03T04:25:06.868Z,2.85
2022-08-03T04:27:41.068Z,2.63
2022-08-03T04:30:17.086Z,2.90
2022-08-03T04:32:52.705Z,2.78
2022-08-03T04:36:00.954Z,2.58
2022-08-03T04:38:23.230Z,2.80
2022-08-03T04:40:57.441Z,3.15
2022-08-03T04:43:29.546Z,2.70
2022-08-03T04:46:00.871Z,3.00
2022-08-03T04:48:37.255Z,2.80
2022-08-03T04:51:11.075Z,3.10
2022-08-03T04:53:43.967Z,2.88
2022-08-03T04:56:15.122Z,2.80
2022-08-03T04:58:47.328Z,2.72
2022-08-03T05:01:21.237Z,2.70
2022-08-03T05:03:57.008Z,2.60
2022-08-03T05:06:31.325Z,2.75
2022-08-03T05:09:00.683Z,2.90
2022-08-03T05:11:32.211Z,3.15
2022-08-03T05:14:01.435Z,2.83
2022-08-03T05:16:35.421Z,3.00
2022-08-03T05:19:07.148Z,3.05
2022-08-03T05:21:52.207Z,3.13
2022-08-03T05:24:23.214Z,2.63
2022-08-03T05:26:52.701Z,2.92
2022-08-03T05:29:23.121Z,3.08
2022-08-03T05:31:53.079Z,2.90
2022-08-03T05:34:29.211Z,2.75
2022-08-03T05:37:00.451Z,2.80
2022-08-03T05:39:33.173Z,3.17
2022-08-03T05:42:07.828Z,2.85
2022-08-03T05:44:41.096Z,2.90
2022-08-03T05:47:19.899Z,2.95
2022-08-03T05:49:55.105Z,2.70
2022-08-03T05:52:30.904Z,2.75
2022-08-03T05:55:01.377Z,2.65
2022-08-03T05:57:35.100Z,2.72
2022-08-03T06:00:07.232Z,2.72
2022-08-03T06:02:48.347Z,3.10
2022-08-03T06:05:25.522Z,2.70
2022-08-03T06:07:57.374Z,2.70
2022-08-03T06:10:37.837Z,2.85
2022-08-03T06:13:20.069Z,3.00
2022-08-03T06:15:56.153Z,2.80
2022-08-03T06:18:36.390Z,2.78
2022-08-03T06:21:23.185Z,2.95
2022-08-03T06:24:02.520Z,2.60
2022-08-03T06:26:34.584Z,2.88
2022-08-03T06:29:16.092Z,3.10
2022-08-03T06:31:59.637Z,2.58
2022-08-03T06:34:39.923Z,2.88
2022-08-03T06:37:32.512Z,2.50
2022-08-03T06:40:04.824Z,2.60
2022-08-03T06:42:37.353Z,2.80
2022-08-03T06:45:21.555Z,2.50
2022-08-03T06:52:38.031Z,2.50
2022-08-03T06:55:16.099Z,2.65
2022-08-03T06:57:55.738Z,2.63
2022-08-03T07:00:31.377Z,2.97
2022-08-03T07:03:03.929Z,2.75
2022-08-03T07:05:47.421Z,2.85
2022-08-03T07:08:36.759Z,2.95
2022-08-03T07:11:25.214Z,2.90
2022-08-03T07:14:20.215Z,2.90
2022-08-03T07:18:09.411Z,2.63
2022-08-03T07:20:56.428Z,2.47
2022-08-03T07:23:42.691Z,2.90
2022-08-03T07:26:31.940Z,2.92
2022-08-03T07:29:15.064Z,2.97
2022-08-03T07:32:24.895Z,2.80
2022-08-03T07:35:25.046Z,2.42
2022-08-03T07:38:23.528Z,2.70
2022-08-03T07:51:07.789Z,2.65
2022-08-03T07:58:19.203Z,2.70
2022-08-03T08:02:00.466Z,2.70
2022-08-03T09:01:17.160Z,2.33
2022-08-03T09:07:25.349Z,2.65
2022-08-03T09:17:21.286Z,2.63
2022-08-03T09:20:23.634Z,2.60
2022-08-03T09:23:51.794Z,2.70
2022-08-03T09:26:39.951Z,2.75
2022-08-03T09:29:28.089Z,2.67
2022-08-03T09:38:19.851Z,2.60
2022-08-03T09:40:49.003Z,2.88
2022-08-03T09:43:21.139Z,2.83
2022-08-03T09:46:03.460Z,2.90
2022-08-03T09:48:35.825Z,2.63
2022-08-03T09:51:33.000Z,2.70
2022-08-03T09:54:00.562Z,2.80
2022-08-03T09:56:48.525Z,2.85
2022-08-03T09:59:24.663Z,2.83
2022-08-03T10:01:56.043Z,2.70
2022-08-03T10:04:25.794Z,2.80
2022-08-03T10:07:12.596Z,2.67
2022-08-03T10:09:53.625Z,2.47
2022-08-03T10:12:23.585Z,2.80
2022-08-03T10:14:53.750Z,2.72
2022-08-03T10:17:26.682Z,3.00
2022-08-03T10:19:55.717Z,2.85
2022-08-03T10:22:24.475Z,3.00
2022-08-03T10:25:13.629Z,3.00
2022-08-03T10:27:47.020Z,3.03
2022-08-03T10:30:20.294Z,2.97
2022-08-03T10:32:55.249Z,2.58
2022-08-03T10:35:25.626Z,2.80
2022-08-03T10:38:14.895Z,2.60
2022-08-03T10:40:51.146Z,2.78
2022-08-03T10:43:28.025Z,3.05
2022-08-03T10:46:00.536Z,2.85
2022-08-03T10:48:29.136Z,2.70
2022-08-03T10:50:58.943Z,2.80
2022-08-03T10:53:44.181Z,3.10
2022-08-03T10:56:52.449Z,3.25
2022-08-03T10:59:42.443Z,3.00
2022-08-03T11:02:12.420Z,2.78
2022-08-03T11:04:43.362Z,3.00
2022-08-03T11:07:23.169Z,3.10
2022-08-03T11:09:52.695Z,2.90
2022-08-03T11:12:30.438Z,2.85
2022-08-03T11:15:02.826Z,2.85
2022-08-03T11:17:32.870Z,2.90
2022-08-03T11:20:06.827Z,2.55
2022-08-03T11:23:03.816Z,2.80
2022-08-03T11:25:55.292Z,2.88
2022-08-03T11:28:31.023Z,2.92
2022-08-03T11:31:46.897Z,2.72
2022-08-03T11:34:13.810Z,2.67
2022-08-03T11:37:01.027Z,2.72
2022-08-03T11:39:46.961Z,2.72
2022-08-03T11:44:47.573Z,2.50
2022-08-03T11:47:20.282Z,2.90
2022-08-03T11:49:49.989Z,2.72
2022-08-03T11:52:26.981Z,2.67
2022-08-03T11:54:57.592Z,2.90
2022-08-03T11:59:01.447Z,2.80
2022-08-03T12:00:33.474Z,2.63
2022-08-03T12:05:35.813Z,2.60
2022-08-03T12:08:06.935Z,2.47
2022-08-03T12:10:37.215Z,2.90
2022-08-03T12:14:44.635Z,2.90
2022-08-03T12:15:59.911Z,3.22
2022-08-03T12:18:28.760Z,3.00
2022-08-03T12:21:04.939Z,2.92
2022-08-03T12:23:37.692Z,3.08
2022-08-03T12:26:08.194Z,3.03
2022-08-03T12:28:38.340Z,3.03
2022-08-03T12:31:08.726Z,3.10
2022-08-03T12:33:58.925Z,3.10
2022-08-03T12:36:29.058Z,3.10
2022-08-03T12:39:06.602Z,2.90
2022-08-03T12:41:36.266Z,2.78
2022-08-03T12:44:06.158Z,2.85
2022-08-03T12:46:47.550Z,3.17
2022-08-03T12:49:19.954Z,2.95
2022-08-03T12:51:48.460Z,3.10
2022-08-03T12:54:25.092Z,3.00
2022-08-03T12:57:00.833Z,2.97
2022-08-03T12:59:40.806Z,3.15
2022-08-03T13:02:18.340Z,2.90
2022-08-03T13:04:48.463Z,2.85
2022-08-03T13:07:18.121Z,2.70
2022-08-03T13:09:55.992Z,2.92
2022-08-03T13:12:26.179Z,2.85
2022-08-03T13:14:59.287Z,2.67
2022-08-03T13:17:29.118Z,2.40
2022-08-03T13:26:28.196Z,2.35
2022-08-03T13:30:53.328Z,2.17
2022-08-03T13:33:33.285Z,2.40
2022-08-03T13:37:07.966Z,2.00
2022-08-03T13:39:58.675Z,2.00
2022-08-03T13:42:36.545Z,2.10
2022-08-03T13:45:25.326Z,2.17
2022-08-03T13:51:05.321Z,2.10
2022-08-03T13:53:49.297Z,1.92
2022-08-03T13:56:27.678Z,2.08
2022-08-03T13:59:05.115Z,1.85
2022-08-03T14:02:09.205Z,1.92
2022-08-03T14:14:33.236Z,1.77
2022-08-03T14:41:35.920Z,1.90
2022-08-03T14:51:21.645Z,1.98
2022-08-03T14:54:33.819Z,2.10
2022-08-03T14:57:37.964Z,2.10
2022-08-03T15:00:48.035Z,1.88
2022-08-03T15:03:29.282Z,2.20
2022-08-03T15:09:31.922Z,2.28
2022-08-03T15:12:33.431Z,2.22
2022-08-03T15:30:29.573Z,1.98
2022-08-03T15:33:41.017Z,2.17
2022-08-03T15:36:32.760Z,2.03
2022-08-03T15:39:29.399Z,2.20
2022-08-03T15:42:16.088Z,2.40
2022-08-03T15:46:12.710Z,2.50
2022-08-03T15:49:01.731Z,2.40
2022-08-03T15:51:39.794Z,2.35
2022-08-03T15:59:11.421Z,2.03
2022-08-03T16:02:03.445Z,2.30
2022-08-03T16:05:03.487Z,2.40
2022-08-03T16:12:21.138Z,2.33
2022-08-03T16:15:47.669Z,2.53
2022-08-03T17:03:24.233Z,2.65
2022-08-03T17:06:36.781Z,2.70
2022-08-03T17:09:58.389Z,2.50
2022-08-03T17:13:50.412Z,2.50
2022-08-03T17:17:37.713Z,2.60
2022-08-03T17:21:30.877Z,2.50
2022-08-03T17:33:02.123Z,2.53
2022-08-03T17:37:58.693Z,2.72
2022-08-03T17:41:29.710Z,2.60
2022-08-03T17:45:02.081Z,2.63
2022-08-03T17:48:18.593Z,2.67
2022-08-03T17:52:02.990Z,2.60
2022-08-03T17:55:56.318Z,2.80
2022-08-03T18:03:20.621Z,2.53
2022-08-03T18:06:12.178Z,2.50
2022-08-03T18:12:57.715Z,2.40
2022-08-03T18:15:47.973Z,2.60
2022-08-03T18:20:03.259Z,2.70
2022-08-03T18:22:47.644Z,2.88
2022-08-03T18:25:42.724Z,2.50
2022-08-03T18:28:45.025Z,2.45
2022-08-03T18:32:17.027Z,2.80
2022-08-03T18:39:12.317Z,2.50
2022-08-03T18:42:54.971Z,2.47
2022-08-03T18:46:17.801Z,2.80
2022-08-03T18:49:15.308Z,2.78
2022-08-03T18:52:52.931Z,3.03
2022-08-03T19:00:34.198Z,2.60
2022-08-03T19:08:08.579Z,2.50
2022-08-03T19:11:22.290Z,2.63
2022-08-03T19:15:16.479Z,2.55
2022-08-03T19:18:19.744Z,2.90
2022-08-03T19:20:56.495Z,2.80
2022-08-03T19:23:49.304Z,3.03
2022-08-03T19:30:28.746Z,2.70
2022-08-03T19:33:57.266Z,2.80
2022-08-03T19:37:38.000Z,2.88
2022-08-03T19:42:07.972Z,2.53
2022-08-03T19:45:22.363Z,2.80
2022-08-03T19:49:17.122Z,2.70
2022-08-03T19:52:31.394Z,2.60
2022-08-03T19:55:19.787Z,2.88
2022-08-03T19:58:08.527Z,3.05
2022-08-03T20:40:38.101Z,2.70
2022-08-03T20:43:29.746Z,3.00
2022-08-03T20:46:31.889Z,3.10
2022-08-03T20:49:03.752Z,3.08
2022-08-03T20:51:57.528Z,3.00
2022-08-03T20:54:33.428Z,2.72
2022-08-03T20:57:16.860Z,3.10
2022-08-03T21:00:05.027Z,2.92
2022-08-03T21:02:39.132Z,2.78
2022-08-03T21:05:48.018Z,3.20
2022-08-03T21:08:37.429Z,2.70
2022-08-03T21:11:47.762Z,3.10
2022-08-03T21:18:36.362Z,2.72
2022-08-03T21:22:04.101Z,2.90
2022-08-03T21:25:10.741Z,2.70
2022-08-03T21:27:59.882Z,2.80
2022-08-03T21:30:36.420Z,3.00
2022-08-03T21:33:35.768Z,2.95
2022-08-03T21:39:16.600Z,3.22
2022-08-03T21:41:56.932Z,2.75
2022-08-03T21:44:36.710Z,3.55
2022-08-03T21:47:54.542Z,3.05
2022-08-03T21:50:25.878Z,2.95
2022-08-03T21:53:23.775Z,2.95
2022-08-03T21:56:03.772Z,3.13
2022-08-03T21:58:40.978Z,3.22
2022-08-03T22:01:40.239Z,3.60
2022-08-03T22:04:50.363Z,3.28
2022-08-03T22:07:32.705Z,3.00
2022-08-03T22:10:08.010Z,3.20
2022-08-03T22:12:42.723Z,3.10
2022-08-03T22:15:25.033Z,2.97
2022-08-03T22:18:00.615Z,3.10
2022-08-03T22:20:47.100Z,2.95
2022-08-03T22:23:28.163Z,3.38
2022-08-03T22:26:35.450Z,3.13
2022-08-03T22:29:25.288Z,3.22
2022-08-03T22:32:00.284Z,3.17
2022-08-03T22:35:21.987Z,3.22
2022-08-03T22:38:05.258Z,3.40
2022-08-03T22:45:01.008Z,3.50
2022-08-03T22:48:19.647Z,3.35
2022-08-03T22:51:05.871Z,3.33
2022-08-03T22:54:05.596Z,3.50
2022-08-03T22:57:04.568Z,3.25
2022-08-03T22:59:54.228Z,3.22
2022-08-03T23:20:39.223Z,2.92
2022-08-03T23:23:08.464Z,3.00
2022-08-03T23:25:51.183Z,3.38
2022-08-03T23:28:24.473Z,3.33
2022-08-03T23:31:07.922Z,3.60
2022-08-03T23:33:49.075Z,3.35
2022-08-03T23:36:31.078Z,3.38
2022-08-03T23:39:04.351Z,3.58
2022-08-03T23:41:37.119Z,3.78
2022-08-03T23:44:09.302Z,3.83
2022-08-03T23:47:47.436Z,3.55
2022-08-03T23:51:53.382Z,3.38
2022-08-03T23:55:11.235Z,3.67
2022-08-03T23:58:33.226Z,3.15
